Gorno-Altaysk, Russia
Current Conditions -  °F | °C
As of 8:30 PM on Sunday 23 Nov 2014 (Local Time) from UNBB Reporting Station
Blowing Snow Blowing Snow  
Wind Chill: -11°   Ceiling: 2000
Heat Index: -3°   Visibility: 6mi
Dew Point: -6°   Wind: 22mph
Humidity: 80%   Direction: 220°SW
Pressure: 29.68"   Gusts: NA
Location:  51.96°N, 85.96°E
Report Text: UNBB 231330Z 22010MPS 9999 DRSN BKN020 M03/M06 Q1005 NOSIG RMKQFE732/0976 24800550
Loading
Personal Weather Stations






























Interactive Weather Map New forecast layout! Learn more

10-Day Weather Forecast

Advertisements
Track Severe Weather on mobile